Ponca City Regional Airport
KPNC : now visible

Airfield :











YOU CAN JOIN US ON...

 
LOGIN :

Register | Disclaimer

   EN    FR    IT 

 









Legend :    VFR   Marginal VFR   IFR   Intensive IFR   Very Intensive IFR
Visi :
Ceiling :
>= 8 km
>= 3000ft
5 to 8 km
1000 to 3000 ft
1500m to 5 km
500 to 1000 ft
800 to 1500m
200 to 500 ft
< 800m
< 200 ft
Symbols :   Thunderstorms  Fog  Heavy snow  Heavy precipitations  Wind > 20 kt






- Airport Elevation : 1008 ft


KPNC - Ponca City Regional

CURRENT METAR :
  • 271753Z AUTO 02005KT 10SM CLR 14/04 A3000 RMK AO2 SLP158 I6000 T01390039 10139 21017 58002

EXPIRED METARs :
  • 271653Z AUTO 01005KT 10SM CLR 11/04 A3002 RMK AO2 SLP167 T01060039
  • 271553Z AUTO 01006KT 10SM CLR 07/04 A3002 RMK AO2 SLP166 T00720039

TAF KPNC
Valid from the 27 at 18:00 until the 28 at 18:00 UTC


271735Z 2718/2818 04009KT P6SM BKN250
FM280800 05016KT P6SM OVC022
PROB30 2809/2814 5SM -RA OVC009
FM281400 04016G24KT 4SM -RA OVC007



MET'MAP, your aeronautical weather chart ! - Copyright ORBIFLY December 2007 - Disclaimer

ORBIFLY MET'MAP TEAM :

Programming & Development : Alexandra Zaïnal
Concept & original design : Baudouin d'Aumeries
Assistance for programming : Marc-Olivier Méhu
Technical & hardware support : Manuel Goepfert

Contact : metmap@orbifly.com




SOURCES & CREDITS :

   NOAA       Earth
Advisory